Reklama

Seznam meteostanic a jejich METAR

Vyhledat místa podle abecedy:
A B C D E F G H I J K L M N O P Q R S T U V W X Y Z

Filtrovat:

ID stanice:
a/nebo
Název místa (fulltext):
 
Místo (ID)Naposledy načteno 
Yamoussoukro (DIYO) 07.04.2020 21:00 UTC Zobrazit METAR
DIYO 072100Z 30004KT 9999 SCT010 28/27 Q1012 NOSIG
Yangon (VYYY) 07.04.2020 23:00 UTC Zobrazit METAR
VYYY 072300Z 23004KT 5000 BR SCT016 SCT110 25/23 Q1009 NOSIG
Yaounde (FKYS) 07.04.2020 23:00 UTC Zobrazit METAR
FKYS 072300Z 25006KT 210V280 9999 BKN006 25/23 Q1016 NOSIG
Yerevan (UGEE) Zatím nenačteno  
Reklama

Počasí na Váš email

Emaily jsou bez reklamy a bez spamu



Odhlásit newsletter

Reklama


Lunární kalendář

  • 15.04.
  • 23.04.
  • 30.04.
  • 07.05.





Vyhledat na internetu:
Reklama